sensor_id;sensor_type;location;lat;lon;timestamp;pressure;altitude;pressure_sealevel;temperature;humidity
21182;BME280;10749;46.296;7.524;2023-10-13T00:00:21;95384.09;;;18.26;34.64
21182;BME280;10749;46.296;7.524;2023-10-13T00:02:56;95391.16;;;18.14;34.94
21182;BME280;10749;46.296;7.524;2023-10-13T00:05:26;95381.91;;;18.10;35.06
21182;BME280;10749;46.296;7.524;2023-10-13T00:07:52;95388.94;;;18.05;35.29
21182;BME280;10749;46.296;7.524;2023-10-13T00:10:17;95379.72;;;17.94;35.31
21182;BME280;10749;46.296;7.524;2023-10-13T00:12:44;95391.88;;;17.90;35.45
21182;BME280;10749;46.296;7.524;2023-10-13T00:15:16;95389.63;;;17.87;35.43
21182;BME280;10749;46.296;7.524;2023-10-13T00:17:53;95393.34;;;17.86;35.42
21182;BME280;10749;46.296;7.524;2023-10-13T00:20:20;95383.88;;;17.83;35.77
21182;BME280;10749;46.296;7.524;2023-10-13T00:23:14;95385.94;;;17.81;35.69
21182;BME280;10749;46.296;7.524;2023-10-13T00:25:44;95382.25;;;17.76;35.85
21182;BME280;10749;46.296;7.524;2023-10-13T00:28:15;95385.53;;;17.78;35.78
21182;BME280;10749;46.296;7.524;2023-10-13T00:30:48;95379.78;;;17.74;35.55
21182;BME280;10749;46.296;7.524;2023-10-13T00:33:16;95380.22;;;17.65;36.00
21182;BME280;10749;46.296;7.524;2023-10-13T00:35:45;95383.75;;;17.59;35.68
21182;BME280;10749;46.296;7.524;2023-10-13T00:38:12;95387.63;;;17.56;36.40
21182;BME280;10749;46.296;7.524;2023-10-13T00:40:40;95378.16;;;17.53;36.20
21182;BME280;10749;46.296;7.524;2023-10-13T00:43:06;95389.72;;;17.47;36.36
21182;BME280;10749;46.296;7.524;2023-10-13T00:45:54;95385.38;;;17.46;35.95
21182;BME280;10749;46.296;7.524;2023-10-13T00:48:31;95378.59;;;17.44;36.05
21182;BME280;10749;46.296;7.524;2023-10-13T00:51:02;95376.13;;;17.42;36.35
21182;BME280;10749;46.296;7.524;2023-10-13T00:53:35;95372.44;;;17.37;36.33
21182;BME280;10749;46.296;7.524;2023-10-13T00:56:09;95377.81;;;17.30;36.34
21182;BME280;10749;46.296;7.524;2023-10-13T00:58:44;95377.16;;;17.28;36.29
21182;BME280;10749;46.296;7.524;2023-10-13T01:01:15;95370.16;;;17.27;36.22
21182;BME280;10749;46.296;7.524;2023-10-13T01:03:48;95369.56;;;17.25;36.09
21182;BME280;10749;46.296;7.524;2023-10-13T01:06:16;95371.22;;;17.26;36.66
21182;BME280;10749;46.296;7.524;2023-10-13T01:08:42;95364.22;;;17.25;36.41
21182;BME280;10749;46.296;7.524;2023-10-13T01:11:09;95370.59;;;17.24;36.46
21182;BME280;10749;46.296;7.524;2023-10-13T01:13:35;95364.22;;;17.25;36.58
21182;BME280;10749;46.296;7.524;2023-10-13T01:16:03;95362.78;;;17.29;36.66
21182;BME280;10749;46.296;7.524;2023-10-13T01:18:33;95374.06;;;17.31;36.30
21182;BME280;10749;46.296;7.524;2023-10-13T01:21:05;95361.91;;;17.35;36.36
21182;BME280;10749;46.296;7.524;2023-10-13T01:23:32;95365.66;;;17.34;36.38
21182;BME280;10749;46.296;7.524;2023-10-13T01:26:03;95368.31;;;17.34;36.38
21182;BME280;10749;46.296;7.524;2023-10-13T01:28:30;95367.28;;;17.35;36.21
21182;BME280;10749;46.296;7.524;2023-10-13T01:31:07;95367.50;;;17.34;35.90
21182;BME280;10749;46.296;7.524;2023-10-13T01:33:33;95368.53;;;17.26;36.54
21182;BME280;10749;46.296;7.524;2023-10-13T01:35:59;95367.72;;;17.19;36.44
21182;BME280;10749;46.296;7.524;2023-10-13T01:38:32;95362.19;;;17.14;36.71
21182;BME280;10749;46.296;7.524;2023-10-13T01:40:58;95360.53;;;17.13;36.60
21182;BME280;10749;46.296;7.524;2023-10-13T01:43:24;95356.00;;;17.14;36.17
21182;BME280;10749;46.296;7.524;2023-10-13T01:45:49;95349.84;;;17.13;36.19
21182;BME280;10749;46.296;7.524;2023-10-13T01:48:15;95353.53;;;17.12;36.57
21182;BME280;10749;46.296;7.524;2023-10-13T01:50:43;95346.34;;;17.13;36.69
21182;BME280;10749;46.296;7.524;2023-10-13T01:53:13;95339.53;;;17.17;36.88
21182;BME280;10749;46.296;7.524;2023-10-13T01:55:43;95332.75;;;17.14;36.72
21182;BME280;10749;46.296;7.524;2023-10-13T01:58:14;95335.44;;;17.07;36.00
21182;BME280;10749;46.296;7.524;2023-10-13T02:00:44;95341.81;;;17.00;36.16
21182;BME280;10749;46.296;7.524;2023-10-13T02:03:11;95338.94;;;16.95;36.50
21182;BME280;10749;46.296;7.524;2023-10-13T02:05:40;95340.81;;;16.88;36.78
21182;BME280;10749;46.296;7.524;2023-10-13T02:08:09;95341.41;;;16.83;36.69
21182;BME280;10749;46.296;7.524;2023-10-13T02:10:36;95338.75;;;16.77;37.18
21182;BME280;10749;46.296;7.524;2023-10-13T02:13:11;95338.72;;;16.70;37.01
21182;BME280;10749;46.296;7.524;2023-10-13T02:15:40;95333.78;;;16.60;37.11
21182;BME280;10749;46.296;7.524;2023-10-13T02:18:08;95333.59;;;16.62;36.73
21182;BME280;10749;46.296;7.524;2023-10-13T02:20:34;95333.19;;;16.65;36.70
21182;BME280;10749;46.296;7.524;2023-10-13T02:23:06;95333.00;;;16.60;37.09
21182;BME280;10749;46.296;7.524;2023-10-13T02:25:36;95335.06;;;16.65;36.87
21182;BME280;10749;46.296;7.524;2023-10-13T02:28:08;95328.44;;;16.60;37.41
21182;BME280;10749;46.296;7.524;2023-10-13T02:30:42;95328.84;;;16.57;37.31
21182;BME280;10749;46.296;7.524;2023-10-13T02:33:14;95335.84;;;16.52;37.53
21182;BME280;10749;46.296;7.524;2023-10-13T02:35:43;95331.28;;;16.52;37.65
21182;BME280;10749;46.296;7.524;2023-10-13T02:38:21;95330.03;;;16.48;37.54
21182;BME280;10749;46.296;7.524;2023-10-13T02:40:58;95327.59;;;16.47;37.66
21182;BME280;10749;46.296;7.524;2023-10-13T02:43:34;95333.34;;;16.44;38.04
21182;BME280;10749;46.296;7.524;2023-10-13T02:45:59;95325.72;;;16.41;37.90
21182;BME280;10749;46.296;7.524;2023-10-13T02:48:26;95332.72;;;16.42;38.04
21182;BME280;10749;46.296;7.524;2023-10-13T02:50:58;95334.78;;;16.40;37.98
21182;BME280;10749;46.296;7.524;2023-10-13T02:53:28;95339.91;;;16.35;38.28
21182;BME280;10749;46.296;7.524;2023-10-13T02:55:55;95338.25;;;16.34;38.14
21182;BME280;10749;46.296;7.524;2023-10-13T02:58:29;95338.25;;;16.27;38.47
21182;BME280;10749;46.296;7.524;2023-10-13T03:01:07;95335.38;;;16.22;38.48
21182;BME280;10749;46.296;7.524;2023-10-13T03:03:50;95337.81;;;16.17;38.74
21182;BME280;10749;46.296;7.524;2023-10-13T03:06:19;95331.03;;;16.14;38.53
21182;BME280;10749;46.296;7.524;2023-10-13T03:08:48;95336.34;;;16.08;38.79
21182;BME280;10749;46.296;7.524;2023-10-13T03:11:13;95333.66;;;16.01;39.15
21182;BME280;10749;46.296;7.524;2023-10-13T03:13:39;95327.28;;;15.96;38.86
21182;BME280;10749;46.296;7.524;2023-10-13T03:16:16;95330.34;;;15.93;38.95
21182;BME280;10749;46.296;7.524;2023-10-13T03:18:43;95325.03;;;15.93;39.13
21182;BME280;10749;46.296;7.524;2023-10-13T03:21:17;95326.22;;;15.90;39.20
21182;BME280;10749;46.296;7.524;2023-10-13T03:23:55;95322.94;;;15.82;39.19
21182;BME280;10749;46.296;7.524;2023-10-13T03:26:20;95322.09;;;15.81;39.58
21182;BME280;10749;46.296;7.524;2023-10-13T03:28:46;95321.28;;;15.81;39.13
21182;BME280;10749;46.296;7.524;2023-10-13T03:31:20;95323.53;;;15.77;39.17
21182;BME280;10749;46.296;7.524;2023-10-13T03:33:48;95323.13;;;15.80;39.46
21182;BME280;10749;46.296;7.524;2023-10-13T03:36:14;95315.53;;;15.84;39.26
21182;BME280;10749;46.296;7.524;2023-10-13T03:38:59;95319.03;;;15.78;39.75
21182;BME280;10749;46.296;7.524;2023-10-13T03:41:24;95317.78;;;15.80;39.03
21182;BME280;10749;46.296;7.524;2023-10-13T03:43:55;95311.81;;;15.78;38.65
21182;BME280;10749;46.296;7.524;2023-10-13T03:46:34;95308.34;;;15.78;38.48
21182;BME280;10749;46.296;7.524;2023-10-13T03:49:01;95310.19;;;15.77;38.09
21182;BME280;10749;46.296;7.524;2023-10-13T03:51:31;95303.00;;;15.78;37.95
21182;BME280;10749;46.296;7.524;2023-10-13T03:53:57;95307.91;;;15.74;38.59
21182;BME280;10749;46.296;7.524;2023-10-13T03:56:28;95306.66;;;15.70;38.86
21182;BME280;10749;46.296;7.524;2023-10-13T03:59:07;95302.56;;;15.67;38.90
21182;BME280;10749;46.296;7.524;2023-10-13T04:01:38;95299.91;;;15.74;38.82
21182;BME280;10749;46.296;7.524;2023-10-13T04:04:27;95299.28;;;15.79;39.04
21182;BME280;10749;46.296;7.524;2023-10-13T04:07:14;95297.88;;;15.76;39.34
21182;BME280;10749;46.296;7.524;2023-10-13T04:10:07;95292.09;;;15.73;38.82
21182;BME280;10749;46.296;7.524;2023-10-13T04:12:55;95293.31;;;15.70;38.85
21182;BME280;10749;46.296;7.524;2023-10-13T04:15:39;95295.38;;;15.68;38.71
21182;BME280;10749;46.296;7.524;2023-10-13T04:18:24;95301.13;;;15.65;39.14
21182;BME280;10749;46.296;7.524;2023-10-13T04:21:11;95298.81;;;15.62;39.30
21182;BME280;10749;46.296;7.524;2023-10-13T04:23:57;95293.31;;;15.63;39.43
21182;BME280;10749;46.296;7.524;2023-10-13T04:26:41;95291.66;;;15.62;39.58
21182;BME280;10749;46.296;7.524;2023-10-13T04:29:26;95296.56;;;15.59;39.70
21182;BME280;10749;46.296;7.524;2023-10-13T04:32:11;95304.34;;;15.54;39.56
21182;BME280;10749;46.296;7.524;2023-10-13T04:34:39;95288.28;;;15.47;39.36
21182;BME280;10749;46.296;7.524;2023-10-13T04:37:05;95294.81;;;15.45;39.56
21182;BME280;10749;46.296;7.524;2023-10-13T04:39:47;95297.16;;;15.54;39.41
21182;BME280;10749;46.296;7.524;2023-10-13T04:42:21;95296.56;;;15.52;39.77
21182;BME280;10749;46.296;7.524;2023-10-13T04:45:05;95291.41;;;15.51;39.89
21182;BME280;10749;46.296;7.524;2023-10-13T04:47:41;95294.91;;;15.58;39.08
21182;BME280;10749;46.296;7.524;2023-10-13T04:50:22;95295.91;;;15.50;39.85
21182;BME280;10749;46.296;7.524;2023-10-13T04:52:52;95292.41;;;15.50;39.65
21182;BME280;10749;46.296;7.524;2023-10-13T04:55:27;95293.25;;;15.50;39.38
21182;BME280;10749;46.296;7.524;2023-10-13T04:58:13;95296.56;;;15.52;39.65
21182;BME280;10749;46.296;7.524;2023-10-13T05:01:01;95292.03;;;15.53;39.97
21182;BME280;10749;46.296;7.524;2023-10-13T05:03:49;95298.56;;;15.50;39.87
21182;BME280;10749;46.296;7.524;2023-10-13T05:06:30;95291.22;;;15.52;39.96
21182;BME280;10749;46.296;7.524;2023-10-13T05:09:07;95297.16;;;15.54;39.59
21182;BME280;10749;46.296;7.524;2023-10-13T05:11:51;95295.50;;;15.53;39.99
21182;BME280;10749;46.296;7.524;2023-10-13T05:14:35;95293.63;;;15.47;39.79
21182;BME280;10749;46.296;7.524;2023-10-13T05:17:19;95296.06;;;15.42;39.79
21182;BME280;10749;46.296;7.524;2023-10-13T05:20:03;95297.69;;;15.43;39.78
21182;BME280;10749;46.296;7.524;2023-10-13T05:22:47;95297.88;;;15.35;39.96
21182;BME280;10749;46.296;7.524;2023-10-13T05:25:38;95297.66;;;15.37;39.96
21182;BME280;10749;46.296;7.524;2023-10-13T05:28:22;95297.28;;;15.40;39.78
21182;BME280;10749;46.296;7.524;2023-10-13T05:31:06;95299.31;;;15.38;40.24
21182;BME280;10749;46.296;7.524;2023-10-13T05:33:50;95300.13;;;15.32;40.44
21182;BME280;10749;46.296;7.524;2023-10-13T05:36:35;95307.81;;;15.20;40.41
21182;BME280;10749;46.296;7.524;2023-10-13T05:39:19;95305.31;;;15.12;40.71
21182;BME280;10749;46.296;7.524;2023-10-13T05:42:03;95309.38;;;15.08;40.49
21182;BME280;10749;46.296;7.524;2023-10-13T05:44:47;95306.72;;;15.08;40.13
21182;BME280;10749;46.296;7.524;2023-10-13T05:47:24;95301.59;;;15.06;40.13
21182;BME280;10749;46.296;7.524;2023-10-13T05:50:09;95297.97;;;15.14;39.87
21182;BME280;10749;46.296;7.524;2023-10-13T05:52:47;95294.94;;;15.23;39.80
21182;BME280;10749;46.296;7.524;2023-10-13T05:55:26;95302.53;;;15.27;39.75
21182;BME280;10749;46.296;7.524;2023-10-13T05:58:11;95307.88;;;15.27;39.48
21182;BME280;10749;46.296;7.524;2023-10-13T06:00:55;95305.56;;;15.17;39.70
21182;BME280;10749;46.296;7.524;2023-10-13T06:03:39;95311.53;;;15.19;39.58
21182;BME280;10749;46.296;7.524;2023-10-13T06:06:23;95322.19;;;15.19;40.01
21182;BME280;10749;46.296;7.524;2023-10-13T06:09:07;95318.47;;;15.20;39.87
21182;BME280;10749;46.296;7.524;2023-10-13T06:11:51;95326.47;;;15.20;39.91
21182;BME280;10749;46.296;7.524;2023-10-13T06:14:35;95324.47;;;15.22;40.03
21182;BME280;10749;46.296;7.524;2023-10-13T06:17:19;95319.75;;;15.24;40.12
21182;BME280;10749;46.296;7.524;2023-10-13T06:20:04;95322.66;;;15.29;40.27
21182;BME280;10749;46.296;7.524;2023-10-13T06:22:48;95324.06;;;15.25;40.42
21182;BME280;10749;46.296;7.524;2023-10-13T06:25:32;95324.22;;;15.17;40.55
21182;BME280;10749;46.296;7.524;2023-10-13T06:28:16;95333.22;;;15.16;40.76
21182;BME280;10749;46.296;7.524;2023-10-13T06:31:00;95331.97;;;15.12;40.96
21182;BME280;10749;46.296;7.524;2023-10-13T06:33:31;95329.13;;;15.13;40.18
21182;BME280;10749;46.296;7.524;2023-10-13T06:36:08;95338.97;;;15.13;40.38
21182;BME280;10749;46.296;7.524;2023-10-13T06:38:39;95333.84;;;15.11;41.01
21182;BME280;10749;46.296;7.524;2023-10-13T06:41:05;95329.44;;;14.97;41.15
21182;BME280;10749;46.296;7.524;2023-10-13T06:43:32;95335.59;;;14.98;41.12
21182;BME280;10749;46.296;7.524;2023-10-13T06:45:58;95336.84;;;15.02;41.00
21182;BME280;10749;46.296;7.524;2023-10-13T06:48:28;95338.50;;;15.03;41.08
21182;BME280;10749;46.296;7.524;2023-10-13T06:51:00;95341.53;;;15.00;41.75
21182;BME280;10749;46.296;7.524;2023-10-13T06:53:30;95335.63;;;15.04;41.17
21182;BME280;10749;46.296;7.524;2023-10-13T06:56:01;95340.56;;;15.07;41.30
21182;BME280;10749;46.296;7.524;2023-10-13T06:58:28;95346.13;;;15.12;41.20
21182;BME280;10749;46.296;7.524;2023-10-13T07:00:54;95347.03;;;15.19;41.32
21182;BME280;10749;46.296;7.524;2023-10-13T07:03:21;95346.19;;;15.19;41.53
21182;BME280;10749;46.296;7.524;2023-10-13T07:05:47;95354.63;;;15.22;40.62
21182;BME280;10749;46.296;7.524;2023-10-13T07:08:16;95350.88;;;15.17;40.53
21182;BME280;10749;46.296;7.524;2023-10-13T07:10:53;95350.44;;;15.13;40.86
21182;BME280;10749;46.296;7.524;2023-10-13T07:13:38;95352.50;;;15.11;40.79
21182;BME280;10749;46.296;7.524;2023-10-13T07:16:05;95354.09;;;15.06;40.81
21182;BME280;10749;46.296;7.524;2023-10-13T07:18:33;95350.41;;;15.07;41.05
21182;BME280;10749;46.296;7.524;2023-10-13T07:21:03;95347.59;;;15.15;41.25
21182;BME280;10749;46.296;7.524;2023-10-13T07:23:37;95343.97;;;15.29;41.34
21182;BME280;10749;46.296;7.524;2023-10-13T07:26:05;95341.91;;;15.52;41.33
21182;BME280;10749;46.296;7.524;2023-10-13T07:28:34;95341.34;;;15.70;41.30
21182;BME280;10749;46.296;7.524;2023-10-13T07:31:02;95339.16;;;15.87;41.56
21182;BME280;10749;46.296;7.524;2023-10-13T07:33:27;95348.03;;;16.07;41.48
21182;BME280;10749;46.296;7.524;2023-10-13T07:36:01;95350.78;;;16.27;40.93
21182;BME280;10749;46.296;7.524;2023-10-13T07:38:26;95353.50;;;16.40;40.24
21182;BME280;10749;46.296;7.524;2023-10-13T07:40:56;95347.31;;;16.46;40.20
21182;BME280;10749;46.296;7.524;2023-10-13T07:43:25;95346.06;;;16.48;40.71
21182;BME280;10749;46.296;7.524;2023-10-13T07:45:52;95338.72;;;16.57;40.84
21182;BME280;10749;46.296;7.524;2023-10-13T07:48:23;95342.88;;;16.73;40.82
21182;BME280;10749;46.296;7.524;2023-10-13T07:51:01;95342.84;;;16.86;40.43
21182;BME280;10749;46.296;7.524;2023-10-13T07:53:31;95341.59;;;16.95;40.45
21182;BME280;10749;46.296;7.524;2023-10-13T07:56:00;95342.84;;;17.12;40.37
21182;BME280;10749;46.296;7.524;2023-10-13T07:58:31;95333.78;;;17.26;40.15
21182;BME280;10749;46.296;7.524;2023-10-13T08:00:59;95334.78;;;17.38;40.55
21182;BME280;10749;46.296;7.524;2023-10-13T08:03:24;95335.34;;;17.53;40.27
21182;BME280;10749;46.296;7.524;2023-10-13T08:06:04;95330.81;;;17.67;40.10
21182;BME280;10749;46.296;7.524;2023-10-13T08:08:32;95335.72;;;17.70;40.25
21182;BME280;10749;46.296;7.524;2023-10-13T08:11:12;95329.94;;;17.73;39.94
21182;BME280;10749;46.296;7.524;2023-10-13T08:16:28;95335.69;;;17.83;39.95
21182;BME280;10749;46.296;7.524;2023-10-13T08:19:13;95334.63;;;17.91;40.18
21182;BME280;10749;46.296;7.524;2023-10-13T08:21:41;95327.78;;;17.95;39.63
21182;BME280;10749;46.296;7.524;2023-10-13T08:24:15;95332.72;;;17.98;39.59
21182;BME280;10749;46.296;7.524;2023-10-13T08:26:41;95334.38;;;17.99;39.55
21182;BME280;10749;46.296;7.524;2023-10-13T08:29:25;95321.38;;;18.03;39.78
21182;BME280;10749;46.296;7.524;2023-10-13T08:31:54;95314.94;;;18.10;39.87
21182;BME280;10749;46.296;7.524;2023-10-13T08:34:29;95310.78;;;18.21;39.81
21182;BME280;10749;46.296;7.524;2023-10-13T08:37:04;95309.25;;;18.31;39.68
21182;BME280;10749;46.296;7.524;2023-10-13T08:39:44;95299.47;;;18.43;39.76
21182;BME280;10749;46.296;7.524;2023-10-13T08:42:34;95297.78;;;18.56;39.75
21182;BME280;10749;46.296;7.524;2023-10-13T08:45:13;95292.75;;;18.66;39.86
21182;BME280;10749;46.296;7.524;2023-10-13T08:47:49;95294.34;;;18.73;39.69
21182;BME280;10749;46.296;7.524;2023-10-13T08:50:49;95293.03;;;18.82;39.47
21182;BME280;10749;46.296;7.524;2023-10-13T08:55:57;95284.63;;;18.97;39.45
21182;BME280;10749;46.296;7.524;2023-10-13T08:58:32;95281.28;;;19.02;39.55
21182;BME280;10749;46.296;7.524;2023-10-13T09:01:16;95272.13;;;19.09;39.41
21182;BME280;10749;46.296;7.524;2023-10-13T09:04:04;95263.22;;;19.15;39.41
21182;BME280;10749;46.296;7.524;2023-10-13T09:07:05;95263.53;;;19.25;39.45
21182;BME280;10749;46.296;7.524;2023-10-13T09:12:20;95249.09;;;19.45;39.42
21182;BME280;10749;46.296;7.524;2023-10-13T09:14:54;95252.28;;;19.53;39.40
21182;BME280;10749;46.296;7.524;2023-10-13T09:17:23;95250.56;;;19.59;39.51
21182;BME280;10749;46.296;7.524;2023-10-13T09:19:59;95247.59;;;19.67;39.17
21182;BME280;10749;46.296;7.524;2023-10-13T09:22:36;95243.41;;;19.71;39.13
21182;BME280;10749;46.296;7.524;2023-10-13T09:25:02;95244.50;;;19.81;39.38
21182;BME280;10749;46.296;7.524;2023-10-13T09:27:31;95251.41;;;19.89;39.16
21182;BME280;10749;46.296;7.524;2023-10-13T09:29:59;95246.34;;;19.99;39.25
21182;BME280;10749;46.296;7.524;2023-10-13T09:32:47;95240.38;;;20.09;39.01
21182;BME280;10749;46.296;7.524;2023-10-13T09:35:22;95232.25;;;20.15;38.77
21182;BME280;10749;46.296;7.524;2023-10-13T09:37:49;95226.69;;;20.28;38.92
21182;BME280;10749;46.296;7.524;2023-10-13T09:40:16;95229.16;;;20.42;38.86
21182;BME280;10749;46.296;7.524;2023-10-13T09:42:52;95221.97;;;20.54;38.69
21182;BME280;10749;46.296;7.524;2023-10-13T09:45:27;95217.63;;;20.64;38.63
21182;BME280;10749;46.296;7.524;2023-10-13T09:47:55;95207.72;;;20.65;38.36
21182;BME280;10749;46.296;7.524;2023-10-13T09:50:33;95199.50;;;20.83;38.38
21182;BME280;10749;46.296;7.524;2023-10-13T09:53:04;95196.72;;;21.01;38.48
21182;BME280;10749;46.296;7.524;2023-10-13T09:55:36;95194.38;;;21.16;38.41
21182;BME280;10749;46.296;7.524;2023-10-13T09:58:08;95186.63;;;21.32;38.44
21182;BME280;10749;46.296;7.524;2023-10-13T10:00:50;95190.69;;;21.46;38.66
21182;BME280;10749;46.296;7.524;2023-10-13T10:03:24;95181.16;;;21.55;38.14
21182;BME280;10749;46.296;7.524;2023-10-13T10:06:04;95176.66;;;21.72;38.14
21182;BME280;10749;46.296;7.524;2023-10-13T10:08:42;95173.78;;;21.90;38.26
21182;BME280;10749;46.296;7.524;2023-10-13T10:16:43;95169.59;;;22.11;37.55
21182;BME280;10749;46.296;7.524;2023-10-13T10:19:14;95159.31;;;22.25;37.40
21182;BME280;10749;46.296;7.524;2023-10-13T10:21:39;95150.41;;;22.41;37.57
21182;BME280;10749;46.296;7.524;2023-10-13T10:24:24;95152.94;;;22.64;37.45
21182;BME280;10749;46.296;7.524;2023-10-13T10:26:55;95142.16;;;22.81;37.48
21182;BME280;10749;46.296;7.524;2023-10-13T10:29:21;95137.78;;;22.96;37.40
21182;BME280;10749;46.296;7.524;2023-10-13T10:31:47;95135.03;;;23.13;37.25
21182;BME280;10749;46.296;7.524;2023-10-13T10:34:14;95130.13;;;23.32;37.49
21182;BME280;10749;46.296;7.524;2023-10-13T10:36:40;95125.78;;;23.48;37.42
21182;BME280;10749;46.296;7.524;2023-10-13T10:39:08;95116.09;;;23.52;37.27
21182;BME280;10749;46.296;7.524;2023-10-13T10:41:36;95114.91;;;23.64;37.23
21182;BME280;10749;46.296;7.524;2023-10-13T10:44:16;95098.31;;;23.82;37.32
21182;BME280;10749;46.296;7.524;2023-10-13T10:46:42;95100.59;;;23.96;37.17
21182;BME280;10749;46.296;7.524;2023-10-13T10:49:18;95093.44;;;24.11;36.65
21182;BME280;10749;46.296;7.524;2023-10-13T10:51:58;95094.69;;;24.25;36.34
21182;BME280;10749;46.296;7.524;2023-10-13T10:54:26;95086.47;;;24.47;36.39
21182;BME280;10749;46.296;7.524;2023-10-13T10:56:57;95078.72;;;24.66;36.47
21182;BME280;10749;46.296;7.524;2023-10-13T10:59:34;95071.50;;;24.81;35.79
21182;BME280;10749;46.296;7.524;2023-10-13T11:02:02;95069.50;;;25.04;36.08
21182;BME280;10749;46.296;7.524;2023-10-13T11:04:28;95059.50;;;25.14;35.88
21182;BME280;10749;46.296;7.524;2023-10-13T11:06:59;95058.47;;;25.31;35.49
21182;BME280;10749;46.296;7.524;2023-10-13T11:09:32;95053.38;;;25.39;34.95
21182;BME280;10749;46.296;7.524;2023-10-13T11:14:40;95041.22;;;25.47;34.79
21182;BME280;10749;46.296;7.524;2023-10-13T11:17:05;95037.69;;;25.51;34.38
21182;BME280;10749;46.296;7.524;2023-10-13T11:19:40;95028.47;;;25.52;33.06
21182;BME280;10749;46.296;7.524;2023-10-13T11:22:16;95024.75;;;25.73;33.43
21182;BME280;10749;46.296;7.524;2023-10-13T11:25:02;95021.78;;;26.05;33.89
21182;BME280;10749;46.296;7.524;2023-10-13T11:27:41;95023.72;;;26.20;33.34
21182;BME280;10749;46.296;7.524;2023-10-13T11:30:19;95017.75;;;26.33;34.09
21182;BME280;10749;46.296;7.524;2023-10-13T11:33:09;95015.53;;;26.45;33.86
21182;BME280;10749;46.296;7.524;2023-10-13T11:35:37;95002.22;;;26.54;33.49
21182;BME280;10749;46.296;7.524;2023-10-13T11:38:18;95003.53;;;26.72;32.99
21182;BME280;10749;46.296;7.524;2023-10-13T11:40:53;94992.91;;;26.90;32.75
21182;BME280;10749;46.296;7.524;2023-10-13T11:43:31;94989.53;;;27.14;32.72
21182;BME280;10749;46.296;7.524;2023-10-13T11:46:01;94983.75;;;27.30;32.00
21182;BME280;10749;46.296;7.524;2023-10-13T11:48:36;94979.31;;;27.44;32.31
21182;BME280;10749;46.296;7.524;2023-10-13T11:51:02;94973.38;;;27.37;32.86
21182;BME280;10749;46.296;7.524;2023-10-13T11:53:35;94965.22;;;27.37;33.01
21182;BME280;10749;46.296;7.524;2023-10-13T11:56:04;94958.06;;;27.57;32.72
21182;BME280;10749;46.296;7.524;2023-10-13T11:58:37;94957.19;;;27.66;31.92
21182;BME280;10749;46.296;7.524;2023-10-13T12:01:03;94952.44;;;27.82;31.50
21182;BME280;10749;46.296;7.524;2023-10-13T12:03:38;94953.41;;;27.96;31.32
21182;BME280;10749;46.296;7.524;2023-10-13T12:06:21;94933.91;;;28.18;31.13
21182;BME280;10749;46.296;7.524;2023-10-13T12:09:05;94934.47;;;28.20;30.35
21182;BME280;10749;46.296;7.524;2023-10-13T12:11:36;94937.00;;;28.35;29.87
21182;BME280;10749;46.296;7.524;2023-10-13T12:14:04;94930.13;;;28.42;30.42
21182;BME280;10749;46.296;7.524;2023-10-13T12:16:42;94924.56;;;28.53;30.31
21182;BME280;10749;46.296;7.524;2023-10-13T12:19:07;94917.09;;;28.63;30.07
21182;BME280;10749;46.296;7.524;2023-10-13T12:21:36;94902.88;;;28.66;29.24
21182;BME280;10749;46.296;7.524;2023-10-13T12:24:03;94916.38;;;28.81;29.44
21182;BME280;10749;46.296;7.524;2023-10-13T12:26:28;94916.91;;;29.02;28.83
21182;BME280;10749;46.296;7.524;2023-10-13T12:29:00;94904.88;;;29.03;27.79
21182;BME280;10749;46.296;7.524;2023-10-13T12:31:32;94908.66;;;29.07;27.07
21182;BME280;10749;46.296;7.524;2023-10-13T12:33:58;94897.94;;;29.34;27.82
21182;BME280;10749;46.296;7.524;2023-10-13T12:36:31;94888.28;;;29.61;27.92
21182;BME280;10749;46.296;7.524;2023-10-13T12:39:06;94889.72;;;29.72;27.43
21182;BME280;10749;46.296;7.524;2023-10-13T12:41:31;94891.16;;;29.83;28.22
21182;BME280;10749;46.296;7.524;2023-10-13T12:44:15;94896.56;;;29.88;27.58
21182;BME280;10749;46.296;7.524;2023-10-13T12:46:59;94888.53;;;30.10;27.23
21182;BME280;10749;46.296;7.524;2023-10-13T12:49:43;94875.09;;;30.27;27.41
21182;BME280;10749;46.296;7.524;2023-10-13T12:52:17;94876.63;;;30.34;26.36
21182;BME280;10749;46.296;7.524;2023-10-13T12:54:46;94869.28;;;30.48;26.56
21182;BME280;10749;46.296;7.524;2023-10-13T12:57:16;94867.34;;;30.62;26.02
21182;BME280;10749;46.296;7.524;2023-10-13T12:59:42;94860.47;;;30.78;26.45
21182;BME280;10749;46.296;7.524;2023-10-13T13:02:08;94858.84;;;30.77;25.41
21182;BME280;10749;46.296;7.524;2023-10-13T13:04:40;94856.50;;;30.84;25.54
21182;BME280;10749;46.296;7.524;2023-10-13T13:07:09;94845.06;;;30.96;25.94
21182;BME280;10749;46.296;7.524;2023-10-13T13:09:38;94840.84;;;30.76;25.21
21182;BME280;10749;46.296;7.524;2023-10-13T13:12:03;94832.50;;;30.81;24.62
21182;BME280;10749;46.296;7.524;2023-10-13T13:14:31;94838.06;;;31.03;24.11
21182;BME280;10749;46.296;7.524;2023-10-13T13:16:59;94827.59;;;31.19;24.18
21182;BME280;10749;46.296;7.524;2023-10-13T13:19:32;94824.06;;;31.41;24.22
21182;BME280;10749;46.296;7.524;2023-10-13T13:22:01;94829.06;;;31.61;23.99
21182;BME280;10749;46.296;7.524;2023-10-13T13:24:27;94826.97;;;31.80;24.17
21182;BME280;10749;46.296;7.524;2023-10-13T13:26:55;94822.69;;;31.96;23.37
21182;BME280;10749;46.296;7.524;2023-10-13T13:29:21;94814.50;;;31.96;23.40
21182;BME280;10749;46.296;7.524;2023-10-13T13:31:46;94819.44;;;32.17;23.60
21182;BME280;10749;46.296;7.524;2023-10-13T13:34:11;94812.28;;;32.38;23.24
21182;BME280;10749;46.296;7.524;2023-10-13T13:36:40;94807.91;;;32.37;22.30
21182;BME280;10749;46.296;7.524;2023-10-13T13:39:10;94802.13;;;32.47;21.83
21182;BME280;10749;46.296;7.524;2023-10-13T13:41:36;94791.91;;;32.70;21.94
21182;BME280;10749;46.296;7.524;2023-10-13T13:44:01;94794.69;;;32.78;21.26
21182;BME280;10749;46.296;7.524;2023-10-13T13:46:38;94797.09;;;32.80;21.08
21182;BME280;10749;46.296;7.524;2023-10-13T13:49:06;94788.41;;;33.04;21.58